Waymart, Pennsylvania
Current Conditions -  °F | °C
As of 10:54 PM on Sunday 21 Dec 2014 (Local Time) from KAVP Reporting Station
Overcast Overcast  
Wind Chill: 30°   Ceiling: 2000
Heat Index: 30°   Visibility: 10mi
Dew Point: 22°   Wind: 0mph
Humidity: 72%   Direction: NA
Pressure: 30.3"   Gusts: NA
Location:  41.58°N, 75.41°W
Report Text: KAVP 220354Z AUTO 00000KT 10SM OVC020 M01/M06 A3030 RMK AO2 SLP269 T10111056
Loading
Personal Weather Stations






























Interactive Weather Map New forecast layout! Learn more

10-Day Weather Forecast

Advertisements
Track Severe Weather on mobile